This demonstration page uses our WeatherBlox Daily Observations layout. Learn more.

Left ArrowRight Arrow

38.88101, -77.10428

Hourly Observations for November 11, 2018

Temp ( °F °C ) Dew Point ( °F °C ) Humidity (%) Winds ( mph kmh ) Pressure ( in mb ) Visibility ( mi km ) Precip ( " mm )
12:52 am 00:52 Clear 34 1.1 18 -7.8 52 52 NNW 9 15 30.41 1030 10 16.0934 0 0
1:52 am 01:52 Clear 34 1.1 18 -7.8 52 52 W 5 7 30.41 1030 10 16.0934 0 0
2:52 am 02:52 Clear 32 0 19 -7.2 59 59 NNW 9 15 30.41 1030 10 16.0934 0 0
3:52 am 03:52 Clear 33 0.6 19 -7.2 56 56 NNW 7 11 30.42 1030 10 16.0934 0 0
4:52 am 04:52 Clear 32 0 19 -7.2 59 59 NNW 7 11 30.44 1031 10 16.0934 0 0
5:52 am 05:52 Clear 32 0 20 -6.7 61 61 N 7 11 30.44 1031 10 16.0934 0 0
6:52 am 06:52 Sunny 32 0 21 -6 64 64 N 7 11 30.45 1031 10 16.0934 0 0
7:52 am 07:52 Sunny 35 1.7 21 -6.1 57 57 VRB 3 6 30.47 1032 10 16.0934 0 0
8:52 am 08:52 Sunny 38 3.3 21 -6.1 51 51 NNW 6 9 30.48 1032 10 16.0934 0 0
9:52 am 09:52 Sunny 41 5 23 -5 49 49 NNE 3 6 30.48 1032 10 16.0934 0 0
10:52 am 10:52 Sunny 44 6.7 25 -3.9 47 47 VRB 5 7 30.47 1032 10 16.0934 0 0
11:52 am 11:52 Sunny 44 6.7 23 -5 43 43 ESE 3 6 30.44 1031 10 16.0934 0 0
12:52 pm 12:52 Sunny 45 7.2 22 -5.6 40 40 SE 3 6 30.41 1030 10 16.0934 0 0
1:52 pm 13:52 Sunny 46 7.8 21 -6.1 37 37 SSE 5 7 30.4 1029 10 16.0934 0 0
2:52 pm 14:52 Sunny 48 8.9 23 -5 37 37 S 7 11 30.38 1029 10 16.0934 0 0
3:52 pm 15:52 Sunny 47 8.3 23 -5 39 39 S 8 13 30.38 1029 10 16.0934 0 0
4:52 pm 16:52 Sunny 45 7.2 22 -5.6 40 40 SSW 7 11 30.37 1029 10 16.0934 0 0
5:52 pm 17:52 Clear 43 6.1 23 -5 45 45 S 7 11 30.37 1029 10 16.0934 0 0
6:52 pm 18:52 Clear 42 5.6 23 -5 47 47 SSW 6 9 30.39 1029 10 16.0934 0 0
7:52 pm 19:52 Clear 41 5 24 -4.4 51 51 SSW 3 6 30.4 1029 10 16.0934 0 0
8:52 pm 20:52 Clear 40 4.4 26 -3.3 58 58 SW 3 6 30.4 1030 10 16.0934 0 0
9:52 pm 21:52 Clear 40 4.4 28 -2.2 63 63 Calm 30.4 1030 10 16.0934 0 0
10:52 pm 22:52 Mostly Clear 37 2.8 30 -1.1 76 76 SW 5 7 30.41 1030 10 16.0934 0 0
11:52 pm 23:52 Partly Cloudy 37 2.8 29 -1.7 73 73 SW 3 6 30.4 1029 10 16.0934 0 0

Powered by AerisWeather